Aaron, Georgia
Current Conditions -  °F | °C
As of 6:55 PM on Thursday 27 Nov 2014 (Local Time) from KTBR Reporting Station
Clear Clear  
Wind Chill: 42°   Ceiling: Unl
Heat Index: 45°   Visibility: 10mi
Dew Point: 34°   Wind: 6mph
Humidity: 64%   Direction: 290°WNW
Pressure: 30.27"   Gusts: NA
Location:  32.5686°N, 81.9052°W
Report Text: KTBR 272355Z AUTO 29005KT 10SM CLR 07/01 A3027 RMK AO2 T00730009 10134 20073
Loading
Personal Weather Stations






























Interactive Weather Map New forecast layout! Learn more

10-Day Weather Forecast

Advertisements
Track Severe Weather on mobile